sensor_id;sensor_type;location;lat;lon;timestamp;pressure;altitude;pressure_sealevel;temperature;humidity
16690;BME280;8458;52.220;9.884;2024-02-26T00:01:32;99467.53;;;4.01;82.36
16690;BME280;8458;52.220;9.884;2024-02-26T00:03:59;99465.97;;;4.05;82.32
16690;BME280;8458;52.220;9.884;2024-02-26T00:06:27;99458.72;;;3.99;82.40
16690;BME280;8458;52.220;9.884;2024-02-26T00:08:53;99464.78;;;4.01;82.64
16690;BME280;8458;52.220;9.884;2024-02-26T00:11:20;99458.41;;;3.95;83.61
16690;BME280;8458;52.220;9.884;2024-02-26T00:13:46;99458.59;;;3.89;84.65
16690;BME280;8458;52.220;9.884;2024-02-26T00:16:13;99453.19;;;3.94;84.80
16690;BME280;8458;52.220;9.884;2024-02-26T00:18:41;99454.91;;;4.00;84.92
16690;BME280;8458;52.220;9.884;2024-02-26T00:21:07;99458.72;;;3.99;85.51
16690;BME280;8458;52.220;9.884;2024-02-26T00:23:34;99454.66;;;4.02;85.80
16690;BME280;8458;52.220;9.884;2024-02-26T00:26:00;99456.56;;;4.01;85.88
16690;BME280;8458;52.220;9.884;2024-02-26T00:28:26;99460.47;;;4.05;85.81
16690;BME280;8458;52.220;9.884;2024-02-26T00:30:54;99453.75;;;3.96;85.91
16690;BME280;8458;52.220;9.884;2024-02-26T00:33:21;99450.44;;;3.94;85.85
16690;BME280;8458;52.220;9.884;2024-02-26T00:35:49;99449.09;;;3.97;85.66
16690;BME280;8458;52.220;9.884;2024-02-26T00:38:16;99447.03;;;3.87;85.51
16690;BME280;8458;52.220;9.884;2024-02-26T00:40:42;99449.63;;;3.76;85.14
16690;BME280;8458;52.220;9.884;2024-02-26T00:43:09;99452.69;;;3.63;85.26
16690;BME280;8458;52.220;9.884;2024-02-26T00:45:35;99452.50;;;3.70;84.89
16690;BME280;8458;52.220;9.884;2024-02-26T00:48:02;99458.59;;;3.55;85.02
16690;BME280;8458;52.220;9.884;2024-02-26T00:50:30;99446.97;;;3.48;85.52
16690;BME280;8458;52.220;9.884;2024-02-26T00:52:58;99442.66;;;3.52;85.69
16690;BME280;8458;52.220;9.884;2024-02-26T00:55:24;99445.97;;;3.54;85.49
16690;BME280;8458;52.220;9.884;2024-02-26T00:57:51;99447.97;;;3.58;85.51
16690;BME280;8458;52.220;9.884;2024-02-26T01:00:18;99447.22;;;3.63;85.37
16690;BME280;8458;52.220;9.884;2024-02-26T01:02:45;99453.75;;;3.62;85.16
16690;BME280;8458;52.220;9.884;2024-02-26T01:05:12;99446.47;;;3.51;85.30
16690;BME280;8458;52.220;9.884;2024-02-26T01:07:39;99451.94;;;3.34;85.81
16690;BME280;8458;52.220;9.884;2024-02-26T01:10:07;99444.63;;;3.39;86.16
16690;BME280;8458;52.220;9.884;2024-02-26T01:12:35;99451.44;;;3.54;85.92
16690;BME280;8458;52.220;9.884;2024-02-26T01:15:01;99446.22;;;3.52;86.48
16690;BME280;8458;52.220;9.884;2024-02-26T01:17:28;99447.13;;;3.58;87.31
16690;BME280;8458;52.220;9.884;2024-02-26T01:19:55;99450.19;;;3.62;87.40
16690;BME280;8458;52.220;9.884;2024-02-26T01:22:21;99449.53;;;3.71;87.27
16690;BME280;8458;52.220;9.884;2024-02-26T01:24:48;99452.75;;;3.68;86.58
16690;BME280;8458;52.220;9.884;2024-02-26T01:27:16;99453.44;;;3.75;86.24
16690;BME280;8458;52.220;9.884;2024-02-26T01:29:42;99459.50;;;3.77;85.56
16690;BME280;8458;52.220;9.884;2024-02-26T01:32:09;99456.75;;;3.77;85.10
16690;BME280;8458;52.220;9.884;2024-02-26T01:34:35;99459.19;;;3.74;84.31
16690;BME280;8458;52.220;9.884;2024-02-26T01:37:03;99454.13;;;3.66;84.57
16690;BME280;8458;52.220;9.884;2024-02-26T01:39:29;99443.16;;;3.66;84.96
16690;BME280;8458;52.220;9.884;2024-02-26T01:41:56;99442.22;;;3.60;85.32
16690;BME280;8458;52.220;9.884;2024-02-26T01:44:25;99434.31;;;3.64;85.42
16690;BME280;8458;52.220;9.884;2024-02-26T01:46:52;99440.91;;;3.63;85.22
16690;BME280;8458;52.220;9.884;2024-02-26T01:49:19;99445.22;;;3.58;85.62
16690;BME280;8458;52.220;9.884;2024-02-26T01:51:46;99438.72;;;3.48;85.19
16690;BME280;8458;52.220;9.884;2024-02-26T01:54:12;99440.78;;;3.40;85.32
16690;BME280;8458;52.220;9.884;2024-02-26T01:56:40;99445.28;;;3.47;85.03
16690;BME280;8458;52.220;9.884;2024-02-26T01:59:08;99442.28;;;3.48;85.05
16690;BME280;8458;52.220;9.884;2024-02-26T02:01:36;99450.25;;;3.50;85.24
16690;BME280;8458;52.220;9.884;2024-02-26T02:04:03;99446.47;;;3.51;85.37
16690;BME280;8458;52.220;9.884;2024-02-26T02:06:30;99444.22;;;3.48;85.38
16690;BME280;8458;52.220;9.884;2024-02-26T02:08:57;99441.56;;;3.53;85.43
16690;BME280;8458;52.220;9.884;2024-02-26T02:11:24;99451.94;;;3.51;85.63
16690;BME280;8458;52.220;9.884;2024-02-26T02:13:50;99453.63;;;3.52;85.73
16690;BME280;8458;52.220;9.884;2024-02-26T02:16:16;99447.63;;;3.55;85.88
16690;BME280;8458;52.220;9.884;2024-02-26T02:18:44;99447.03;;;3.53;86.32
16690;BME280;8458;52.220;9.884;2024-02-26T02:21:12;99450.94;;;3.57;86.40
16690;BME280;8458;52.220;9.884;2024-02-26T02:23:38;99451.03;;;3.62;86.63
16690;BME280;8458;52.220;9.884;2024-02-26T02:26:05;99447.47;;;3.62;86.50
16690;BME280;8458;52.220;9.884;2024-02-26T02:28:32;99449.63;;;3.59;86.73
16690;BME280;8458;52.220;9.884;2024-02-26T02:30:58;99446.28;;;3.57;86.50
16690;BME280;8458;52.220;9.884;2024-02-26T02:33:26;99451.28;;;3.61;86.28
16690;BME280;8458;52.220;9.884;2024-02-26T02:35:52;99445.78;;;3.61;85.96
16690;BME280;8458;52.220;9.884;2024-02-26T02:38:21;99443.78;;;3.56;86.22
16690;BME280;8458;52.220;9.884;2024-02-26T02:40:49;99454.25;;;3.59;86.41
16690;BME280;8458;52.220;9.884;2024-02-26T02:43:15;99449.94;;;3.63;86.53
16690;BME280;8458;52.220;9.884;2024-02-26T02:45:41;99443.97;;;3.66;86.44
16690;BME280;8458;52.220;9.884;2024-02-26T02:48:08;99449.94;;;3.63;86.31
16690;BME280;8458;52.220;9.884;2024-02-26T02:50:34;99447.78;;;3.65;86.42
16690;BME280;8458;52.220;9.884;2024-02-26T02:53:01;99452.19;;;3.66;86.53
16690;BME280;8458;52.220;9.884;2024-02-26T02:55:29;99454.25;;;3.59;87.07
16690;BME280;8458;52.220;9.884;2024-02-26T02:57:55;99461.91;;;3.57;87.70
16690;BME280;8458;52.220;9.884;2024-02-26T03:00:21;99452.50;;;3.53;88.12
16690;BME280;8458;52.220;9.884;2024-02-26T03:02:48;99454.25;;;3.59;88.56
16690;BME280;8458;52.220;9.884;2024-02-26T03:05:15;99455.75;;;3.50;89.08
16690;BME280;8458;52.220;9.884;2024-02-26T03:07:41;99456.59;;;3.50;89.22
16690;BME280;8458;52.220;9.884;2024-02-26T03:10:08;99456.16;;;3.41;89.45
16690;BME280;8458;52.220;9.884;2024-02-26T03:12:36;99457.66;;;3.32;89.66
16690;BME280;8458;52.220;9.884;2024-02-26T03:15:03;99464.38;;;3.41;89.80
16690;BME280;8458;52.220;9.884;2024-02-26T03:17:30;99460.56;;;3.43;89.74
16690;BME280;8458;52.220;9.884;2024-02-26T03:19:56;99457.72;;;3.37;89.43
16690;BME280;8458;52.220;9.884;2024-02-26T03:22:22;99466.84;;;3.26;88.86
16690;BME280;8458;52.220;9.884;2024-02-26T03:24:49;99465.59;;;3.17;89.36
16690;BME280;8458;52.220;9.884;2024-02-26T03:27:15;99468.25;;;3.12;89.75
16690;BME280;8458;52.220;9.884;2024-02-26T03:29:43;99460.69;;;3.19;90.24
16690;BME280;8458;52.220;9.884;2024-02-26T03:32:10;99465.19;;;3.25;90.13
16690;BME280;8458;52.220;9.884;2024-02-26T03:34:36;99466.84;;;3.26;90.08
16690;BME280;8458;52.220;9.884;2024-02-26T03:37:04;99471.66;;;3.19;90.56
16690;BME280;8458;52.220;9.884;2024-02-26T03:39:30;99470.81;;;3.18;90.89
16690;BME280;8458;52.220;9.884;2024-02-26T03:41:57;99470.56;;;3.20;91.18
16690;BME280;8458;52.220;9.884;2024-02-26T03:44:23;99463.91;;;3.16;91.57
16690;BME280;8458;52.220;9.884;2024-02-26T03:46:51;99462.84;;;3.17;91.43
16690;BME280;8458;52.220;9.884;2024-02-26T03:49:18;99455.22;;;3.19;91.65
16690;BME280;8458;52.220;9.884;2024-02-26T03:51:44;99461.03;;;3.22;91.69
16690;BME280;8458;52.220;9.884;2024-02-26T03:54:11;99458.63;;;3.26;91.68
16690;BME280;8458;52.220;9.884;2024-02-26T03:56:37;99456.63;;;3.21;91.75
16690;BME280;8458;52.220;9.884;2024-02-26T03:59:03;99450.97;;;3.11;92.36
16690;BME280;8458;52.220;9.884;2024-02-26T04:01:31;99455.81;;;3.21;92.27
16690;BME280;8458;52.220;9.884;2024-02-26T04:03:59;99450.59;;;3.19;91.92
16690;BME280;8458;52.220;9.884;2024-02-26T04:06:25;99466.09;;;3.14;92.17
16690;BME280;8458;52.220;9.884;2024-02-26T04:08:52;99464.31;;;3.08;92.16
16690;BME280;8458;52.220;9.884;2024-02-26T04:11:19;99464.41;;;3.13;92.26
16690;BME280;8458;52.220;9.884;2024-02-26T04:13:45;99470.50;;;3.15;92.27
16690;BME280;8458;52.220;9.884;2024-02-26T04:16:14;99470.28;;;3.04;92.62
16690;BME280;8458;52.220;9.884;2024-02-26T04:18:41;99472.06;;;3.11;92.65
16690;BME280;8458;52.220;9.884;2024-02-26T04:21:09;99475.47;;;3.18;92.31
16690;BME280;8458;52.220;9.884;2024-02-26T04:23:35;99477.31;;;3.29;92.49
16690;BME280;8458;52.220;9.884;2024-02-26T04:26:02;99472.28;;;3.38;91.99
16690;BME280;8458;52.220;9.884;2024-02-26T04:28:29;99477.50;;;3.39;91.64
16690;BME280;8458;52.220;9.884;2024-02-26T04:30:55;99476.38;;;3.23;92.03
16690;BME280;8458;52.220;9.884;2024-02-26T04:33:22;99481.63;;;3.25;92.45
16690;BME280;8458;52.220;9.884;2024-02-26T04:35:48;99487.47;;;3.29;92.55
16690;BME280;8458;52.220;9.884;2024-02-26T04:38:16;99487.31;;;3.35;92.51
16690;BME280;8458;52.220;9.884;2024-02-26T04:40:42;99495.75;;;3.34;92.65
16690;BME280;8458;52.220;9.884;2024-02-26T04:43:09;99495.94;;;3.27;93.01
16690;BME280;8458;52.220;9.884;2024-02-26T04:45:35;99501.41;;;3.27;93.10
16690;BME280;8458;52.220;9.884;2024-02-26T04:48:02;99501.91;;;3.24;93.42
16690;BME280;8458;52.220;9.884;2024-02-26T04:50:28;99512.84;;;3.24;93.57
16690;BME280;8458;52.220;9.884;2024-02-26T04:52:55;99518.75;;;3.33;93.60
16690;BME280;8458;52.220;9.884;2024-02-26T04:55:23;99519.19;;;3.41;93.33
16690;BME280;8458;52.220;9.884;2024-02-26T04:57:49;99526.34;;;3.43;93.22
16690;BME280;8458;52.220;9.884;2024-02-26T05:00:16;99524.94;;;3.40;93.33
16690;BME280;8458;52.220;9.884;2024-02-26T05:02:43;99522.19;;;3.40;93.15
16690;BME280;8458;52.220;9.884;2024-02-26T05:05:09;99530.97;;;3.42;93.05
16690;BME280;8458;52.220;9.884;2024-02-26T05:07:39;99525.00;;;3.45;93.31
16690;BME280;8458;52.220;9.884;2024-02-26T05:10:07;99527.63;;;3.52;93.16
16690;BME280;8458;52.220;9.884;2024-02-26T05:12:35;99522.50;;;3.44;93.22
16690;BME280;8458;52.220;9.884;2024-02-26T05:15:02;99523.38;;;3.44;93.55
16690;BME280;8458;52.220;9.884;2024-02-26T05:17:28;99522.44;;;3.38;93.65
16690;BME280;8458;52.220;9.884;2024-02-26T05:19:54;99524.69;;;3.41;94.04
16690;BME280;8458;52.220;9.884;2024-02-26T05:22:21;99530.84;;;3.49;94.06
16690;BME280;8458;52.220;9.884;2024-02-26T05:24:47;99532.59;;;3.55;93.89
16690;BME280;8458;52.220;9.884;2024-02-26T05:27:14;99521.16;;;3.58;93.75
16690;BME280;8458;52.220;9.884;2024-02-26T05:29:42;99538.16;;;3.60;93.54
16690;BME280;8458;52.220;9.884;2024-02-26T05:32:08;99521.22;;;3.63;93.59
16690;BME280;8458;52.220;9.884;2024-02-26T05:34:34;99530.03;;;3.65;93.65
16690;BME280;8458;52.220;9.884;2024-02-26T05:37:01;99529.22;;;3.65;93.52
16690;BME280;8458;52.220;9.884;2024-02-26T05:39:27;99542.34;;;3.63;93.75
16690;BME280;8458;52.220;9.884;2024-02-26T05:41:54;99545.50;;;3.71;93.59
16690;BME280;8458;52.220;9.884;2024-02-26T05:44:22;99542.75;;;3.71;93.25
16690;BME280;8458;52.220;9.884;2024-02-26T05:46:50;99542.16;;;3.69;93.75
16690;BME280;8458;52.220;9.884;2024-02-26T05:49:16;99540.00;;;3.71;93.66
16690;BME280;8458;52.220;9.884;2024-02-26T05:51:43;99539.50;;;3.74;93.65
16690;BME280;8458;52.220;9.884;2024-02-26T05:54:09;99536.53;;;3.76;93.65
16690;BME280;8458;52.220;9.884;2024-02-26T05:56:36;99533.69;;;3.71;93.82
16690;BME280;8458;52.220;9.884;2024-02-26T05:59:02;99537.88;;;3.73;93.88
16690;BME280;8458;52.220;9.884;2024-02-26T06:01:29;99533.88;;;3.64;94.27
16690;BME280;8458;52.220;9.884;2024-02-26T06:03:56;99538.84;;;3.67;94.11
16690;BME280;8458;52.220;9.884;2024-02-26T06:06:23;99537.00;;;3.73;94.24
16690;BME280;8458;52.220;9.884;2024-02-26T06:08:49;99544.50;;;3.77;94.03
16690;BME280;8458;52.220;9.884;2024-02-26T06:11:16;99551.81;;;3.72;94.14
16690;BME280;8458;52.220;9.884;2024-02-26T06:13:42;99554.88;;;3.75;94.03
16690;BME280;8458;52.220;9.884;2024-02-26T06:16:09;99557.63;;;3.75;94.16
16690;BME280;8458;52.220;9.884;2024-02-26T06:18:35;99562.63;;;3.79;94.33
16690;BME280;8458;52.220;9.884;2024-02-26T06:21:03;99558.81;;;3.80;94.44
16690;BME280;8458;52.220;9.884;2024-02-26T06:23:30;99557.63;;;3.75;94.45
16690;BME280;8458;52.220;9.884;2024-02-26T06:25:56;99564.78;;;3.76;94.26
16690;BME280;8458;52.220;9.884;2024-02-26T06:28:22;99570.28;;;3.76;94.26
16690;BME280;8458;52.220;9.884;2024-02-26T06:30:49;99571.78;;;3.84;94.00
16690;BME280;8458;52.220;9.884;2024-02-26T06:33:17;99587.38;;;3.84;94.20
16690;BME280;8458;52.220;9.884;2024-02-26T06:35:44;99589.56;;;3.82;94.64
16690;BME280;8458;52.220;9.884;2024-02-26T06:38:12;99585.81;;;3.88;94.48
16690;BME280;8458;52.220;9.884;2024-02-26T06:40:39;99586.41;;;3.90;94.00
16690;BME280;8458;52.220;9.884;2024-02-26T06:43:05;99589.81;;;3.80;94.48
16690;BME280;8458;52.220;9.884;2024-02-26T06:45:32;99593.03;;;3.77;95.19
16690;BME280;8458;52.220;9.884;2024-02-26T06:47:58;99609.81;;;3.81;95.13
16690;BME280;8458;52.220;9.884;2024-02-26T06:50:24;99612.16;;;3.72;95.53
16690;BME280;8458;52.220;9.884;2024-02-26T06:52:51;99620.69;;;3.75;95.91
16690;BME280;8458;52.220;9.884;2024-02-26T06:55:19;99621.88;;;3.80;95.86
16690;BME280;8458;52.220;9.884;2024-02-26T06:57:45;99628.53;;;3.84;95.89
16690;BME280;8458;52.220;9.884;2024-02-26T07:00:13;99626.63;;;3.84;95.91
16690;BME280;8458;52.220;9.884;2024-02-26T07:02:41;99634.63;;;3.86;96.14
16690;BME280;8458;52.220;9.884;2024-02-26T07:05:08;99637.44;;;3.91;95.88
16690;BME280;8458;52.220;9.884;2024-02-26T07:07:35;99640.75;;;3.93;95.73
16690;BME280;8458;52.220;9.884;2024-02-26T07:10:01;99634.78;;;3.96;95.61
16690;BME280;8458;52.220;9.884;2024-02-26T07:12:32;99636.25;;;3.87;95.63
16690;BME280;8458;52.220;9.884;2024-02-26T07:14:58;99631.94;;;3.91;95.53
16690;BME280;8458;52.220;9.884;2024-02-26T07:17:25;99635.88;;;3.95;95.70
16690;BME280;8458;52.220;9.884;2024-02-26T07:19:52;99640.34;;;4.01;95.72
16690;BME280;8458;52.220;9.884;2024-02-26T07:22:18;99652.50;;;4.05;95.53
16690;BME280;8458;52.220;9.884;2024-02-26T07:24:45;99652.09;;;4.13;95.26
16690;BME280;8458;52.220;9.884;2024-02-26T07:27:11;99645.78;;;4.13;94.80
16690;BME280;8458;52.220;9.884;2024-02-26T07:29:39;99649.34;;;4.13;95.05
16690;BME280;8458;52.220;9.884;2024-02-26T07:32:06;99644.47;;;4.16;94.88
16690;BME280;8458;52.220;9.884;2024-02-26T07:34:32;99646.09;;;4.17;95.06
16690;BME280;8458;52.220;9.884;2024-02-26T07:36:59;99648.59;;;4.18;95.42
16690;BME280;8458;52.220;9.884;2024-02-26T07:39:25;99646.09;;;4.17;95.66
16690;BME280;8458;52.220;9.884;2024-02-26T07:41:52;99651.69;;;4.22;95.71
16690;BME280;8458;52.220;9.884;2024-02-26T07:44:18;99643.97;;;4.19;95.46
16690;BME280;8458;52.220;9.884;2024-02-26T07:46:46;99648.03;;;4.16;95.47
16690;BME280;8458;52.220;9.884;2024-02-26T07:49:11;99644.97;;;4.12;95.75
16690;BME280;8458;52.220;9.884;2024-02-26T07:51:38;99640.97;;;4.20;95.57
16690;BME280;8458;52.220;9.884;2024-02-26T07:54:04;99646.78;;;4.24;95.97
16690;BME280;8458;52.220;9.884;2024-02-26T07:56:31;99645.78;;;4.30;95.94
16690;BME280;8458;52.220;9.884;2024-02-26T07:58:57;99647.03;;;4.39;95.26
16690;BME280;8458;52.220;9.884;2024-02-26T08:01:24;99645.63;;;4.37;95.07
16690;BME280;8458;52.220;9.884;2024-02-26T08:03:53;99641.81;;;4.38;95.30
16690;BME280;8458;52.220;9.884;2024-02-26T08:06:19;99643.81;;;4.42;95.39
16690;BME280;8458;52.220;9.884;2024-02-26T08:08:45;99643.81;;;4.42;95.18
16690;BME280;8458;52.220;9.884;2024-02-26T08:11:14;99643.81;;;4.42;95.51
16690;BME280;8458;52.220;9.884;2024-02-26T08:13:40;99661.78;;;4.50;95.63
16690;BME280;8458;52.220;9.884;2024-02-26T08:16:07;99648.63;;;4.52;95.75
16690;BME280;8458;52.220;9.884;2024-02-26T08:18:34;99652.78;;;4.55;95.52
16690;BME280;8458;52.220;9.884;2024-02-26T08:21:02;99655.59;;;4.60;95.41
16690;BME280;8458;52.220;9.884;2024-02-26T08:23:29;99656.22;;;4.62;95.01
16690;BME280;8458;52.220;9.884;2024-02-26T08:25:56;99652.09;;;4.64;95.13
16690;BME280;8458;52.220;9.884;2024-02-26T08:28:22;99659.59;;;4.69;95.21
16690;BME280;8458;52.220;9.884;2024-02-26T08:30:50;99649.63;;;4.63;95.56
16690;BME280;8458;52.220;9.884;2024-02-26T08:33:16;99651.84;;;4.66;95.81
16690;BME280;8458;52.220;9.884;2024-02-26T08:35:42;99647.47;;;4.65;95.76
16690;BME280;8458;52.220;9.884;2024-02-26T08:38:11;99649.97;;;4.66;96.07
16690;BME280;8458;52.220;9.884;2024-02-26T08:40:38;99646.47;;;4.71;95.75
16690;BME280;8458;52.220;9.884;2024-02-26T08:43:04;99644.47;;;4.66;96.22
16690;BME280;8458;52.220;9.884;2024-02-26T08:45:31;99635.38;;;4.66;96.41
16690;BME280;8458;52.220;9.884;2024-02-26T08:47:57;99641.97;;;4.65;96.87
16690;BME280;8458;52.220;9.884;2024-02-26T08:50:24;99630.63;;;4.61;97.60
16690;BME280;8458;52.220;9.884;2024-02-26T08:52:51;99638.88;;;4.61;98.12
16690;BME280;8458;52.220;9.884;2024-02-26T08:55:19;99630.31;;;4.58;98.36
16690;BME280;8458;52.220;9.884;2024-02-26T08:57:46;99645.47;;;4.60;98.35
16690;BME280;8458;52.220;9.884;2024-02-26T09:00:14;99649.63;;;4.63;98.59
16690;BME280;8458;52.220;9.884;2024-02-26T09:02:43;99649.22;;;4.71;97.95
16690;BME280;8458;52.220;9.884;2024-02-26T09:05:10;99647.94;;;4.79;97.85
16690;BME280;8458;52.220;9.884;2024-02-26T09:07:36;99656.44;;;4.77;97.85
16690;BME280;8458;52.220;9.884;2024-02-26T09:10:03;99655.34;;;4.78;97.74
16690;BME280;8458;52.220;9.884;2024-02-26T09:12:31;99662.56;;;4.84;97.44
16690;BME280;8458;52.220;9.884;2024-02-26T09:14:57;99668.16;;;4.90;97.29
16690;BME280;8458;52.220;9.884;2024-02-26T09:17:24;99668.47;;;4.93;97.38
16690;BME280;8458;52.220;9.884;2024-02-26T09:19:51;99661.41;;;4.97;97.07
16690;BME280;8458;52.220;9.884;2024-02-26T09:22:17;99663.06;;;4.98;96.84
16690;BME280;8458;52.220;9.884;2024-02-26T09:24:43;99663.91;;;4.99;96.33
16690;BME280;8458;52.220;9.884;2024-02-26T09:27:10;99671.69;;;5.07;96.43
16690;BME280;8458;52.220;9.884;2024-02-26T09:29:38;99667.88;;;5.08;96.31
16690;BME280;8458;52.220;9.884;2024-02-26T09:32:04;99669.53;;;5.09;96.04
16690;BME280;8458;52.220;9.884;2024-02-26T09:34:31;99668.44;;;5.10;95.47
16690;BME280;8458;52.220;9.884;2024-02-26T09:36:58;99668.50;;;5.15;94.86
16690;BME280;8458;52.220;9.884;2024-02-26T09:39:25;99670.19;;;5.16;94.70
16690;BME280;8458;52.220;9.884;2024-02-26T09:41:53;99672.69;;;5.18;94.11
16690;BME280;8458;52.220;9.884;2024-02-26T09:44:19;99680.72;;;5.25;93.74
16690;BME280;8458;52.220;9.884;2024-02-26T09:46:48;99684.13;;;5.32;93.49
16690;BME280;8458;52.220;9.884;2024-02-26T09:49:15;99692.44;;;5.37;93.11
16690;BME280;8458;52.220;9.884;2024-02-26T09:51:42;99701.91;;;5.46;92.51
16690;BME280;8458;52.220;9.884;2024-02-26T09:54:09;99709.13;;;5.52;92.10
16690;BME280;8458;52.220;9.884;2024-02-26T09:56:37;99709.78;;;5.60;91.69
16690;BME280;8458;52.220;9.884;2024-02-26T09:59:06;99714.78;;;5.63;91.13
16690;BME280;8458;52.220;9.884;2024-02-26T10:01:37;99704.66;;;5.68;90.58
16690;BME280;8458;52.220;9.884;2024-02-26T10:04:08;99708.81;;;5.71;89.58
16690;BME280;8458;52.220;9.884;2024-02-26T10:06:36;99712.47;;;5.77;89.43
16690;BME280;8458;52.220;9.884;2024-02-26T10:09:03;99716.34;;;5.81;88.55
16690;BME280;8458;52.220;9.884;2024-02-26T10:11:32;99718.59;;;5.84;88.30
16690;BME280;8458;52.220;9.884;2024-02-26T10:13:59;99718.81;;;5.77;88.73
16690;BME280;8458;52.220;9.884;2024-02-26T10:16:25;99725.47;;;5.81;88.81
16690;BME280;8458;52.220;9.884;2024-02-26T10:18:53;99729.28;;;5.80;88.80
16690;BME280;8458;52.220;9.884;2024-02-26T10:21:22;99730.44;;;5.84;88.60
16690;BME280;8458;52.220;9.884;2024-02-26T10:23:49;99744.22;;;5.84;88.84
16690;BME280;8458;52.220;9.884;2024-02-26T10:26:16;99737.59;;;5.85;88.92
16690;BME280;8458;52.220;9.884;2024-02-26T10:28:44;99748.59;;;5.85;89.34
16690;BME280;8458;52.220;9.884;2024-02-26T10:31:11;99729.94;;;5.87;89.52
16690;BME280;8458;52.220;9.884;2024-02-26T10:33:40;99739.59;;;5.90;89.58
16690;BME280;8458;52.220;9.884;2024-02-26T10:36:07;99743.09;;;5.85;89.35
16690;BME280;8458;52.220;9.884;2024-02-26T10:38:36;99752.47;;;5.84;89.18
16690;BME280;8458;52.220;9.884;2024-02-26T10:41:03;99747.47;;;5.81;89.14
16690;BME280;8458;52.220;9.884;2024-02-26T10:43:30;99755.22;;;5.84;88.91
16690;BME280;8458;52.220;9.884;2024-02-26T10:45:57;99745.84;;;5.85;89.02
16690;BME280;8458;52.220;9.884;2024-02-26T10:48:23;99740.94;;;5.87;89.23
16690;BME280;8458;52.220;9.884;2024-02-26T10:50:50;99747.28;;;5.88;88.93
16690;BME280;8458;52.220;9.884;2024-02-26T10:53:20;99743.19;;;5.90;89.31
16690;BME280;8458;52.220;9.884;2024-02-26T10:55:49;99739.44;;;5.97;89.16
16690;BME280;8458;52.220;9.884;2024-02-26T10:58:18;99728.16;;;5.98;89.17
16690;BME280;8458;52.220;9.884;2024-02-26T11:00:46;99736.69;;;5.97;89.18
16690;BME280;8458;52.220;9.884;2024-02-26T11:03:14;99719.91;;;5.98;89.39
16690;BME280;8458;52.220;9.884;2024-02-26T11:05:43;99718.28;;;6.02;90.01
16690;BME280;8458;52.220;9.884;2024-02-26T11:08:10;99720.22;;;6.02;89.88
16690;BME280;8458;52.220;9.884;2024-02-26T11:10:38;99717.59;;;6.12;89.87
16690;BME280;8458;52.220;9.884;2024-02-26T11:13:09;99728.09;;;6.15;89.73
16690;BME280;8458;52.220;9.884;2024-02-26T11:15:37;99717.06;;;6.15;89.97
16690;BME280;8458;52.220;9.884;2024-02-26T11:18:05;99717.69;;;6.22;89.77
16690;BME280;8458;52.220;9.884;2024-02-26T11:20:33;99715.31;;;6.31;89.33
16690;BME280;8458;52.220;9.884;2024-02-26T11:23:00;99718.88;;;6.32;89.52
16690;BME280;8458;52.220;9.884;2024-02-26T11:25:27;99733.84;;;6.41;89.35
16690;BME280;8458;52.220;9.884;2024-02-26T11:27:56;99733.94;;;6.51;88.87
16690;BME280;8458;52.220;9.884;2024-02-26T11:30:26;99737.38;;;6.63;87.31
16690;BME280;8458;52.220;9.884;2024-02-26T11:32:55;99739.84;;;6.65;87.38
16690;BME280;8458;52.220;9.884;2024-02-26T11:35:23;99748.97;;;6.71;87.32
16690;BME280;8458;52.220;9.884;2024-02-26T11:37:54;99750.13;;;6.75;87.13
16690;BME280;8458;52.220;9.884;2024-02-26T11:40:22;99755.94;;;6.78;87.29
16690;BME280;8458;52.220;9.884;2024-02-26T11:42:48;99758.13;;;6.76;86.23
16690;BME280;8458;52.220;9.884;2024-02-26T11:45:47;99756.47;;;6.75;86.13
16690;BME280;8458;52.220;9.884;2024-02-26T11:48:15;99760.09;;;6.81;86.90
16690;BME280;8458;52.220;9.884;2024-02-26T11:50:46;99762.47;;;6.99;88.51
16690;BME280;8458;52.220;9.884;2024-02-26T11:53:20;99758.63;;;7.00;85.83
16690;BME280;8458;52.220;9.884;2024-02-26T11:55:46;99764.13;;;7.00;85.31
16690;BME280;8458;52.220;9.884;2024-02-26T11:58:13;99752.06;;;7.07;85.15
16690;BME280;8458;52.220;9.884;2024-02-26T12:00:39;99749.22;;;7.02;85.27
16690;BME280;8458;52.220;9.884;2024-02-26T12:03:08;99752.78;;;6.97;85.19
16690;BME280;8458;52.220;9.884;2024-02-26T12:05:37;99747.84;;;6.99;84.61
16690;BME280;8458;52.220;9.884;2024-02-26T12:08:05;99751.16;;;7.01;84.78
16690;BME280;8458;52.220;9.884;2024-02-26T12:10:34;99757.56;;;7.07;84.98
16690;BME280;8458;52.220;9.884;2024-02-26T12:13:05;99757.56;;;7.07;84.94
16690;BME280;8458;52.220;9.884;2024-02-26T12:15:36;99758.19;;;7.19;85.26
16690;BME280;8458;52.220;9.884;2024-02-26T12:18:04;99757.16;;;7.30;85.40
16690;BME280;8458;52.220;9.884;2024-02-26T12:20:32;99758.31;;;7.34;85.48
16690;BME280;8458;52.220;9.884;2024-02-26T12:23:01;99762.75;;;7.41;84.62
16690;BME280;8458;52.220;9.884;2024-02-26T12:25:29;99772.16;;;7.45;84.87
16690;BME280;8458;52.220;9.884;2024-02-26T12:27:57;99769.66;;;7.43;84.77
16690;BME280;8458;52.220;9.884;2024-02-26T12:30:24;99768.91;;;7.53;84.90
16690;BME280;8458;52.220;9.884;2024-02-26T12:32:52;99773.38;;;7.64;84.17
16690;BME280;8458;52.220;9.884;2024-02-26T12:35:22;99776.66;;;7.61;85.08
16690;BME280;8458;52.220;9.884;2024-02-26T12:37:50;99772.25;;;7.60;84.67
16690;BME280;8458;52.220;9.884;2024-02-26T12:40:17;99768.44;;;7.71;84.27
16690;BME280;8458;52.220;9.884;2024-02-26T12:42:45;99769.00;;;7.68;84.70
16690;BME280;8458;52.220;9.884;2024-02-26T12:45:12;99769.25;;;7.67;84.28
16690;BME280;8458;52.220;9.884;2024-02-26T12:47:41;99777.81;;;7.70;84.76
16690;BME280;8458;52.220;9.884;2024-02-26T12:50:09;99776.16;;;7.69;83.72
16690;BME280;8458;52.220;9.884;2024-02-26T12:52:38;99777.28;;;7.74;84.40
16690;BME280;8458;52.220;9.884;2024-02-26T12:55:07;99781.44;;;7.76;84.00
16690;BME280;8458;52.220;9.884;2024-02-26T12:57:36;99780.66;;;7.81;83.95
16690;BME280;8458;52.220;9.884;2024-02-26T13:00:04;99777.03;;;7.80;83.56
16690;BME280;8458;52.220;9.884;2024-02-26T13:02:32;99789.47;;;7.78;83.37
16690;BME280;8458;52.220;9.884;2024-02-26T13:05:00;99784.78;;;7.83;83.42
16690;BME280;8458;52.220;9.884;2024-02-26T13:07:27;99794.19;;;7.87;83.95
16690;BME280;8458;52.220;9.884;2024-02-26T13:09:53;99795.88;;;7.88;83.49
16690;BME280;8458;52.220;9.884;2024-02-26T13:12:22;99805.78;;;7.95;83.08
16690;BME280;8458;52.220;9.884;2024-02-26T13:14:58;99799.78;;;8.03;83.38
16690;BME280;8458;52.220;9.884;2024-02-26T13:17:25;99809.72;;;8.04;83.57
16690;BME280;8458;52.220;9.884;2024-02-26T13:19:53;99806.69;;;8.05;83.22
16690;BME280;8458;52.220;9.884;2024-02-26T13:22:20;99801.47;;;8.09;82.90